Time;durP1;ratioP1;P1;durP2;ratioP2;P2;SDS_P1;SDS_P2;PMS_P1;PMS_P2;Temp;Humidity;BMP_temperature;BMP_pressure;BME280_temperature;BME280_humidity;BME280_pressure;Samples;Min_cycle;Max_cycle;Signal;HPM_P1;HPM_P2
2023/01/31 00:00:46;;;;;;;8.40;3.83;;;8.80;58.00;;;;;;5031130;28;20265;-59
2023/01/31 00:03:12;;;;;;;6.80;3.90;;;9.10;57.50;;;;;;5033025;28;20224;-59
2023/01/31 00:05:37;;;;;;;9.90;3.47;;;9.10;57.10;;;;;;5032932;28;20478;-59
2023/01/31 00:08:03;;;;;;;8.00;3.40;;;8.90;56.80;;;;;;5032816;28;20200;-59
2023/01/31 00:10:29;;;;;;;10.63;4.33;;;8.80;57.30;;;;;;5032592;28;20202;-59
2023/01/31 00:12:56;;;;;;;9.23;4.17;;;8.80;57.50;;;;;;5032705;28;20276;-59
2023/01/31 00:15:21;;;;;;;6.40;3.40;;;8.80;57.20;;;;;;5024397;28;20276;-59
2023/01/31 00:17:47;;;;;;;5.47;3.13;;;8.70;57.30;;;;;;5032977;28;20943;-59
2023/01/31 00:20:12;;;;;;;5.03;3.00;;;8.50;57.70;;;;;;5032615;28;20232;-59
2023/01/31 00:22:38;;;;;;;7.63;3.70;;;8.40;58.10;;;;;;5032605;28;20201;-59
2023/01/31 00:25:04;;;;;;;5.87;3.60;;;8.50;58.20;;;;;;5032631;28;20197;-59
2023/01/31 00:27:30;;;;;;;5.00;3.27;;;8.30;58.40;;;;;;5030854;28;20190;-59
2023/01/31 00:29:55;;;;;;;15.77;4.03;;;8.50;57.90;;;;;;5032504;28;20442;-60
2023/01/31 00:32:21;;;;;;;5.10;3.40;;;8.30;57.90;;;;;;5032299;28;20311;-59
2023/01/31 00:34:47;;;;;;;4.60;3.20;;;8.30;58.40;;;;;;5032631;28;20196;-59
2023/01/31 00:37:12;;;;;;;9.53;4.00;;;8.00;58.80;;;;;;5032274;28;20283;-59
2023/01/31 00:39:38;;;;;;;4.03;3.63;;;8.00;59.10;;;;;;5031865;28;20204;-59
2023/01/31 00:42:03;;;;;;;5.57;3.53;;;8.00;59.00;;;;;;5032216;28;20829;-59
2023/01/31 00:44:29;;;;;;;4.77;3.27;;;8.10;58.80;;;;;;5032409;28;20274;-59
2023/01/31 00:46:55;;;;;;;7.23;4.10;;;8.20;58.50;;;;;;5032210;28;20247;-59
2023/01/31 00:49:20;;;;;;;5.23;3.90;;;8.00;58.50;;;;;;5032213;28;20220;-59
2023/01/31 00:51:46;;;;;;;7.03;3.43;;;8.00;59.00;;;;;;5031820;28;20220;-59
2023/01/31 00:54:12;;;;;;;4.50;3.40;;;7.80;58.90;;;;;;5030695;28;20212;-59
2023/01/31 00:56:37;;;;;;;10.53;4.23;;;8.00;58.90;;;;;;5032262;28;20196;-59
2023/01/31 00:59:07;;;;;;;8.27;3.80;;;8.10;58.40;;;;;;5031940;28;21003;-59
2023/01/31 01:01:34;;;;;;;7.40;4.30;;;8.20;58.30;;;;;;5031423;28;20223;-59
2023/01/31 01:04:00;;;;;;;7.10;3.80;;;8.10;58.00;;;;;;5031963;28;20427;-59
2023/01/31 01:06:27;;;;;;;5.60;3.17;;;8.10;58.20;;;;;;5031697;28;20969;-59
2023/01/31 01:08:53;;;;;;;11.33;3.27;;;8.20;57.90;;;;;;5031397;28;20443;-59
2023/01/31 01:11:25;;;;;;;4.80;3.37;;;8.30;57.70;;;;;;5031466;28;20880;-59
2023/01/31 01:13:51;;;;;;;4.57;3.30;;;8.30;57.30;;;;;;5023996;28;20425;-59
2023/01/31 01:16:24;;;;;;;5.03;3.80;;;8.30;57.30;;;;;;5030949;28;20463;-59
2023/01/31 01:18:50;;;;;;;6.70;3.43;;;8.50;57.10;;;;;;5031706;28;20448;-59
2023/01/31 01:21:21;;;;;;;3.20;2.90;;;8.40;56.90;;;;;;5029916;28;20923;-59
2023/01/31 01:23:48;;;;;;;5.30;3.23;;;8.50;57.00;;;;;;5031578;28;20522;-59
2023/01/31 01:26:15;;;;;;;5.03;2.90;;;8.40;56.70;;;;;;5031614;28;20424;-59
2023/01/31 01:28:41;;;;;;;9.93;3.17;;;8.40;56.90;;;;;;5031485;28;20486;-59
2023/01/31 01:31:09;;;;;;;8.87;3.70;;;8.70;56.50;;;;;;5030991;28;20472;-59
2023/01/31 01:33:35;;;;;;;9.23;3.13;;;8.90;56.20;;;;;;5031148;28;20599;-59
2023/01/31 01:36:06;;;;;;;5.80;3.07;;;9.00;55.70;;;;;;5031528;28;20775;-59
2023/01/31 01:38:36;;;;;;;4.00;2.63;;;9.10;55.70;;;;;;5031259;28;20438;-59
2023/01/31 01:41:02;;;;;;;5.60;3.27;;;9.00;55.30;;;;;;5031085;28;20519;-59
2023/01/31 01:43:58;;;;;;;7.50;2.73;;;9.00;55.40;;;;;;5031246;28;20459;-59
2023/01/31 01:46:25;;;;;;;8.23;3.30;;;9.00;55.30;;;;;;5028754;28;20448;-59
2023/01/31 01:48:59;;;;;;;12.30;3.40;;;9.10;55.20;;;;;;5031078;28;20456;-59
2023/01/31 01:51:26;;;;;;;7.63;2.87;;;9.10;55.20;;;;;;5030859;28;20420;-59
2023/01/31 01:53:54;;;;;;;6.67;2.93;;;9.00;55.20;;;;;;5031071;28;20448;-59
2023/01/31 01:56:28;;;;;;;10.33;2.97;;;9.00;55.10;;;;;;5031076;28;20503;-59
2023/01/31 01:59:08;;;;;;;7.10;3.47;;;9.10;55.20;;;;;;5031038;28;20900;-59
2023/01/31 02:01:36;;;;;;;4.10;2.53;;;9.00;55.30;;;;;;5030442;28;20990;-59
2023/01/31 02:04:05;;;;;;;6.73;2.80;;;8.70;55.40;;;;;;5030942;28;20987;-59
2023/01/31 02:06:30;;;;;;;5.00;3.20;;;8.60;56.10;;;;;;5030753;28;20436;-59
2023/01/31 02:08:57;;;;;;;4.67;3.27;;;8.70;56.30;;;;;;5030833;28;20872;-59
2023/01/31 02:11:29;;;;;;;9.33;3.53;;;8.70;56.20;;;;;;5030683;28;20275;-59
2023/01/31 02:14:05;;;;;;;5.70;3.60;;;8.80;56.10;;;;;;5021038;28;20440;-59
2023/01/31 02:16:31;;;;;;;8.10;3.37;;;8.90;56.00;;;;;;5018515;28;20838;-59
2023/01/31 02:18:57;;;;;;;11.53;3.10;;;9.00;55.90;;;;;;5030680;28;20432;-59
2023/01/31 02:21:45;;;;;;;9.40;4.10;;;9.00;55.70;;;;;;5031163;28;20225;-59
2023/01/31 02:24:32;;;;;;;8.70;3.53;;;9.00;55.80;;;;;;5034937;28;20436;-59
2023/01/31 02:27:19;;;;;;;4.83;3.63;;;9.00;56.00;;;;;;5034694;28;20461;-59
2023/01/31 02:30:16;;;;;;;5.23;3.20;;;9.00;56.10;;;;;;5033208;28;21252;-59
2023/01/31 02:33:08;;;;;;;9.37;4.87;;;9.00;55.80;;;;;;5034687;28;20486;-59
2023/01/31 02:35:57;;;;;;;8.73;4.10;;;9.10;55.50;;;;;;5034691;28;20502;-59
2023/01/31 02:38:40;;;;;;;6.63;4.03;;;9.00;55.60;;;;;;5034577;28;20435;-59
2023/01/31 02:41:11;;;;;;;7.87;4.30;;;9.10;55.80;;;;;;5032599;28;20514;-59
2023/01/31 02:46:46;;;;;;;6.27;3.33;;;9.00;56.10;;;;;;5034718;28;20435;-59
2023/01/31 02:49:34;;;;;;;8.30;3.43;;;8.80;56.50;;;;;;5034520;28;20811;-59
2023/01/31 02:52:23;;;;;;;11.77;4.43;;;8.80;56.80;;;;;;5034264;28;20423;-59
2023/01/31 02:57:50;;;;;;;7.77;3.83;;;8.80;57.00;;;;;;5034510;28;20427;-59
2023/01/31 03:00:17;;;;;;;8.90;4.43;;;8.60;57.20;;;;;;5033979;28;20557;-59
2023/01/31 03:02:43;;;;;;;8.47;4.47;;;8.70;57.10;;;;;;5034163;28;20420;-59
2023/01/31 03:05:14;;;;;;;11.90;4.73;;;8.60;57.20;;;;;;5034263;28;20438;-59
2023/01/31 03:07:42;;;;;;;7.87;4.33;;;8.70;57.40;;;;;;5032499;28;20603;-59
2023/01/31 03:10:26;;;;;;;9.23;4.50;;;8.70;57.40;;;;;;5033784;28;20435;-59
2023/01/31 03:13:13;;;;;;;10.23;4.10;;;8.70;57.30;;;;;;5034031;28;20439;-59
2023/01/31 03:18:59;;;;;;;10.50;5.00;;;8.90;57.10;;;;;;5034500;28;21168;-59
2023/01/31 03:21:32;;;;;;;8.77;3.73;;;8.70;57.30;;;;;;5033362;28;20483;-59
2023/01/31 03:23:58;;;;;;;6.80;4.07;;;8.80;57.20;;;;;;5033692;28;20424;-59
2023/01/31 03:26:25;;;;;;;8.30;4.30;;;8.90;56.90;;;;;;5033863;28;20783;-59
2023/01/31 03:28:56;;;;;;;8.13;4.30;;;9.00;56.70;;;;;;5032457;28;20444;-59
2023/01/31 03:31:42;;;;;;;7.30;4.37;;;9.10;56.70;;;;;;5033270;28;20478;-59
2023/01/31 03:34:11;;;;;;;9.70;4.37;;;9.20;56.70;;;;;;5031650;28;20457;-60
2023/01/31 03:36:42;;;;;;;9.47;4.67;;;9.20;56.60;;;;;;5033783;28;20439;-59
2023/01/31 03:39:21;;;;;;;11.30;5.37;;;9.20;56.40;;;;;;5033603;28;20436;-59
2023/01/31 03:41:57;;;;;;;6.00;4.83;;;9.30;56.40;;;;;;5033452;28;20493;-59
2023/01/31 03:44:50;;;;;;;8.10;3.70;;;9.30;56.20;;;;;;5033500;28;20953;-59
2023/01/31 03:47:25;;;;;;;12.30;3.37;;;9.30;56.20;;;;;;5033554;28;20464;-59
2023/01/31 03:49:53;;;;;;;8.13;4.40;;;9.20;56.80;;;;;;5032971;28;21005;-59
2023/01/31 03:52:30;;;;;;;7.97;3.90;;;9.20;56.30;;;;;;5033756;28;20473;-59
2023/01/31 03:55:06;;;;;;;9.90;4.37;;;9.00;56.30;;;;;;5033299;28;20485;-59
2023/01/31 03:57:39;;;;;;;6.10;4.83;;;9.10;56.40;;;;;;5033425;28;20805;-59
2023/01/31 04:00:08;;;;;;;4.20;3.30;;;9.10;56.30;;;;;;5031075;28;20503;-59
2023/01/31 04:02:35;;;;;;;9.67;4.37;;;9.20;56.20;;;;;;5033149;28;20436;-59
2023/01/31 04:05:07;;;;;;;7.37;3.87;;;9.20;56.20;;;;;;5033041;28;20420;-59
2023/01/31 04:07:33;;;;;;;11.20;4.43;;;9.10;56.30;;;;;;5032870;28;20420;-59
2023/01/31 04:09:59;;;;;;;11.93;3.53;;;9.00;56.30;;;;;;5032752;28;20769;-59
2023/01/31 04:12:24;;;;;;;5.23;3.37;;;9.10;56.30;;;;;;5032884;28;20427;-59
2023/01/31 04:14:50;;;;;;;5.50;4.33;;;9.10;56.40;;;;;;5023773;28;20239;-59
2023/01/31 04:17:15;;;;;;;6.70;4.50;;;9.10;56.40;;;;;;5032952;28;20197;-59
2023/01/31 04:19:41;;;;;;;7.90;5.73;;;9.10;56.30;;;;;;5032546;28;20209;-59
2023/01/31 04:22:06;;;;;;;6.63;3.50;;;9.00;56.30;;;;;;5032889;28;20347;-59
2023/01/31 04:24:32;;;;;;;6.43;3.13;;;9.00;56.30;;;;;;5032640;28;20185;-59
2023/01/31 04:26:58;;;;;;;5.63;4.70;;;8.90;56.50;;;;;;5031020;28;20205;-59
2023/01/31 04:29:23;;;;;;;7.47;3.43;;;9.00;57.00;;;;;;5032287;28;20554;-59
2023/01/31 04:31:49;;;;;;;10.27;4.17;;;8.90;56.40;;;;;;5032576;28;20287;-59
2023/01/31 04:34:14;;;;;;;10.83;5.17;;;9.00;56.20;;;;;;5032442;28;20197;-59
2023/01/31 04:36:41;;;;;;;10.20;3.53;;;9.00;56.60;;;;;;5032485;28;20189;-59
2023/01/31 04:39:09;;;;;;;11.40;3.90;;;8.80;56.30;;;;;;5031138;28;20581;-59
2023/01/31 04:41:34;;;;;;;9.53;4.27;;;8.80;56.40;;;;;;5031966;28;20495;-59
2023/01/31 04:44:00;;;;;;;11.53;4.13;;;8.80;56.30;;;;;;5031473;28;20785;-59
2023/01/31 04:46:25;;;;;;;7.57;3.60;;;8.70;56.10;;;;;;5032357;28;20201;-59
2023/01/31 04:48:51;;;;;;;10.07;4.30;;;8.70;56.40;;;;;;5032310;28;20724;-59
2023/01/31 04:51:16;;;;;;;13.67;4.83;;;8.70;56.40;;;;;;5031934;28;20200;-59
2023/01/31 04:53:43;;;;;;;11.10;3.87;;;8.80;56.40;;;;;;5029268;28;20648;-59
2023/01/31 04:56:09;;;;;;;7.80;3.97;;;8.90;56.10;;;;;;5032035;28;20247;-59
2023/01/31 04:58:35;;;;;;;9.43;4.50;;;8.90;55.80;;;;;;5031990;28;20416;-59
2023/01/31 05:01:00;;;;;;;9.00;4.00;;;9.00;55.70;;;;;;5031478;28;20256;-59
2023/01/31 05:03:26;;;;;;;6.33;3.73;;;9.00;56.10;;;;;;5031921;28;20197;-59
2023/01/31 05:05:52;;;;;;;12.90;4.87;;;9.10;55.40;;;;;;5031966;28;20288;-59
2023/01/31 05:08:17;;;;;;;11.93;5.20;;;9.20;55.20;;;;;;5032037;28;20193;-59
2023/01/31 05:10:43;;;;;;;10.57;4.40;;;9.10;55.00;;;;;;5031424;28;20185;-59
2023/01/31 05:13:10;;;;;;;5.97;3.37;;;9.20;55.00;;;;;;5029709;28;20193;-59
2023/01/31 05:15:37;;;;;;;9.93;3.70;;;9.10;55.00;;;;;;5024681;28;20420;-59
2023/01/31 05:18:02;;;;;;;10.17;4.60;;;9.10;55.10;;;;;;5031685;28;20451;-59
2023/01/31 05:20:35;;;;;;;10.40;4.00;;;8.90;55.20;;;;;;5029534;28;20511;-59
2023/01/31 05:23:01;;;;;;;5.80;3.70;;;8.80;55.30;;;;;;5031658;28;20193;-59
2023/01/31 05:25:27;;;;;;;14.07;5.13;;;8.60;55.50;;;;;;5031481;28;20923;-59
2023/01/31 05:27:53;;;;;;;6.23;3.87;;;8.50;55.80;;;;;;5031682;28;20436;-59
2023/01/31 05:30:19;;;;;;;6.40;3.40;;;8.50;56.00;;;;;;5031204;28;20276;-59
2023/01/31 05:32:46;;;;;;;8.43;4.27;;;8.50;56.00;;;;;;5031382;28;20555;-59
2023/01/31 05:35:12;;;;;;;15.37;4.10;;;8.60;56.00;;;;;;5031581;28;20201;-59
2023/01/31 05:37:41;;;;;;;12.60;5.07;;;8.60;55.80;;;;;;5031286;28;20523;-59
2023/01/31 05:40:12;;;;;;;7.43;4.53;;;8.60;56.00;;;;;;5030675;28;20491;-59
2023/01/31 05:42:38;;;;;;;6.20;3.50;;;8.60;56.00;;;;;;5031431;28;20479;-59
2023/01/31 05:45:04;;;;;;;9.27;4.23;;;8.60;55.90;;;;;;5031294;28;20460;-59
2023/01/31 05:47:30;;;;;;;12.03;5.10;;;8.70;55.90;;;;;;5029512;28;20837;-59
2023/01/31 05:49:56;;;;;;;7.73;4.17;;;8.70;55.70;;;;;;5031052;28;20436;-59
2023/01/31 05:52:22;;;;;;;6.60;3.80;;;8.80;55.60;;;;;;5031125;28;20220;-59
2023/01/31 05:54:47;;;;;;;9.23;4.60;;;8.90;55.40;;;;;;5031210;28;20272;-59
2023/01/31 05:57:16;;;;;;;12.83;4.63;;;8.90;55.30;;;;;;5031138;28;20220;-59
2023/01/31 05:59:41;;;;;;;9.90;4.80;;;8.90;55.20;;;;;;5030612;28;20216;-59
2023/01/31 06:02:07;;;;;;;7.27;4.73;;;9.00;55.30;;;;;;5030862;28;20459;-59
2023/01/31 06:04:33;;;;;;;7.23;4.33;;;9.00;55.40;;;;;;5031178;28;20234;-59
2023/01/31 06:06:59;;;;;;;7.30;3.60;;;9.00;55.40;;;;;;5031042;28;20414;-59
2023/01/31 06:09:25;;;;;;;10.13;3.90;;;8.90;55.30;;;;;;5030529;28;20507;-59
2023/01/31 06:11:50;;;;;;;9.90;4.30;;;8.90;55.30;;;;;;5030938;28;20200;-59
2023/01/31 06:14:16;;;;;;;7.00;3.57;;;9.00;55.30;;;;;;5019983;28;20248;-59
2023/01/31 06:16:42;;;;;;;9.60;3.80;;;8.90;55.20;;;;;;5030937;28;20197;-59
2023/01/31 06:19:07;;;;;;;7.83;4.00;;;8.70;55.20;;;;;;5030417;28;20802;-59
2023/01/31 06:21:33;;;;;;;13.67;5.60;;;8.70;55.60;;;;;;5030631;28;20235;-59
2023/01/31 06:23:59;;;;;;;11.07;4.80;;;8.30;56.40;;;;;;5030597;28;20195;-59
2023/01/31 06:26:25;;;;;;;10.83;4.40;;;8.10;56.60;;;;;;5030661;28;20420;-59
2023/01/31 06:28:50;;;;;;;8.03;4.40;;;8.20;56.70;;;;;;5030641;28;20194;-59
2023/01/31 06:31:16;;;;;;;7.63;4.97;;;8.30;56.60;;;;;;5030255;28;20711;-59
2023/01/31 06:33:42;;;;;;;7.63;3.90;;;8.20;56.70;;;;;;5030713;28;20185;-60
2023/01/31 06:36:08;;;;;;;7.93;4.70;;;8.30;56.50;;;;;;5030825;28;20511;-59
2023/01/31 06:38:33;;;;;;;10.23;4.43;;;8.30;56.20;;;;;;5030397;28;20190;-59
2023/01/31 06:40:59;;;;;;;9.83;4.43;;;8.40;56.20;;;;;;5028511;28;20252;-59
2023/01/31 06:43:25;;;;;;;6.03;3.60;;;8.30;56.00;;;;;;5030615;28;20220;-59
2023/01/31 06:45:50;;;;;;;11.73;5.30;;;8.30;56.00;;;;;;5030966;28;20196;-59
2023/01/31 06:48:16;;;;;;;9.20;4.83;;;8.40;56.00;;;;;;5030639;28;20271;-59
2023/01/31 06:50:42;;;;;;;8.70;4.50;;;8.50;55.90;;;;;;5030244;28;20200;-59
2023/01/31 06:53:08;;;;;;;8.00;5.13;;;8.50;55.80;;;;;;5030425;28;20197;-59
2023/01/31 06:55:34;;;;;;;8.00;4.47;;;8.40;55.90;;;;;;5030465;28;20423;-59
2023/01/31 06:58:00;;;;;;;4.63;3.70;;;8.30;56.00;;;;;;5030500;28;20186;-59
2023/01/31 07:00:25;;;;;;;8.00;4.20;;;8.30;56.20;;;;;;5028745;28;20229;-59
2023/01/31 07:02:52;;;;;;;7.50;3.83;;;8.30;56.00;;;;;;5030477;28;20243;-59
2023/01/31 07:05:19;;;;;;;8.43;3.73;;;8.20;56.20;;;;;;5030482;28;20432;-59
2023/01/31 07:07:45;;;;;;;8.50;4.90;;;8.20;56.30;;;;;;5030033;28;20478;-59
2023/01/31 07:10:12;;;;;;;8.80;4.20;;;8.10;56.40;;;;;;5033852;28;20419;-59
2023/01/31 07:12:38;;;;;;;6.43;4.40;;;8.00;56.30;;;;;;5034088;28;20478;-59
2023/01/31 07:15:04;;;;;;;9.70;4.37;;;8.10;56.40;;;;;;5024600;28;20573;-59
2023/01/31 07:17:32;;;;;;;6.57;4.77;;;7.90;56.70;;;;;;5034011;28;20428;-59
2023/01/31 07:19:57;;;;;;;10.37;3.70;;;7.80;56.90;;;;;;5033532;28;20483;-59
2023/01/31 07:22:23;;;;;;;11.43;4.83;;;7.80;57.30;;;;;;5033832;28;20427;-59
2023/01/31 07:24:49;;;;;;;12.00;4.93;;;7.90;57.10;;;;;;5033959;28;20202;-59
2023/01/31 07:27:15;;;;;;;8.63;3.87;;;8.00;56.70;;;;;;5033694;28;20189;-59
2023/01/31 07:29:40;;;;;;;7.27;3.70;;;8.10;56.50;;;;;;5033348;28;20428;-59
2023/01/31 07:32:06;;;;;;;5.90;3.10;;;8.20;56.70;;;;;;5033574;28;20475;-59
2023/01/31 07:34:32;;;;;;;8.13;3.97;;;8.50;56.30;;;;;;5032085;28;20613;-59
2023/01/31 07:37:00;;;;;;;5.87;3.50;;;8.60;55.30;;;;;;5033612;28;20185;-59
2023/01/31 07:39:25;;;;;;;5.87;3.70;;;8.80;54.70;;;;;;5033334;28;20593;-59
2023/01/31 07:41:51;;;;;;;6.53;3.90;;;8.80;54.30;;;;;;5033315;28;20604;-59
2023/01/31 07:44:17;;;;;;;10.53;5.27;;;8.90;54.20;;;;;;5033821;28;20297;-59
2023/01/31 07:46:42;;;;;;;10.30;4.60;;;8.90;54.00;;;;;;5033355;28;20193;-59
2023/01/31 07:49:11;;;;;;;11.43;4.70;;;9.00;54.00;;;;;;5033101;28;20657;-59
2023/01/31 07:51:37;;;;;;;6.73;3.83;;;8.80;53.90;;;;;;5033286;28;20208;-59
2023/01/31 07:54:04;;;;;;;7.20;4.00;;;8.80;54.30;;;;;;5033615;28;20425;-59
2023/01/31 07:56:30;;;;;;;6.23;4.20;;;8.70;54.60;;;;;;5033293;28;20914;-59
2023/01/31 07:58:55;;;;;;;9.90;4.27;;;8.60;54.80;;;;;;5032871;28;20511;-59
2023/01/31 08:04:09;;;;;;;10.83;5.00;;;8.80;54.70;;;;;;5032991;28;20216;-59
2023/01/31 08:06:36;;;;;;;5.97;3.83;;;8.70;54.50;;;;;;5033134;28;20482;-60
2023/01/31 08:09:02;;;;;;;5.93;3.63;;;8.70;55.10;;;;;;5032914;28;20447;-59
2023/01/31 08:11:27;;;;;;;9.70;4.20;;;8.70;54.80;;;;;;5032958;28;20432;-59
2023/01/31 08:13:53;;;;;;;10.30;3.97;;;8.80;54.50;;;;;;5024996;28;20475;-59
2023/01/31 08:16:19;;;;;;;8.37;5.50;;;8.90;54.30;;;;;;5032493;28;20224;-59
2023/01/31 08:18:46;;;;;;;9.27;5.07;;;8.90;54.20;;;;;;5032200;28;20211;-59
2023/01/31 08:21:13;;;;;;;6.60;4.20;;;9.00;54.40;;;;;;5032253;28;20475;-59
2023/01/31 08:23:40;;;;;;;7.77;4.43;;;9.00;54.50;;;;;;5032816;28;20482;-59
2023/01/31 08:26:12;;;;;;;10.53;4.07;;;9.00;54.40;;;;;;5032414;28;20428;-59
2023/01/31 08:28:38;;;;;;;9.33;4.13;;;9.00;54.70;;;;;;5031858;28;20937;-59
2023/01/31 08:31:05;;;;;;;10.93;4.23;;;9.10;54.60;;;;;;5032004;28;20472;-59
2023/01/31 08:33:31;;;;;;;7.70;3.70;;;9.10;54.60;;;;;;5032437;28;20784;-59
2023/01/31 08:35:56;;;;;;;5.80;3.63;;;9.10;54.60;;;;;;5032442;28;20438;-59
2023/01/31 08:38:22;;;;;;;6.83;3.73;;;9.00;54.50;;;;;;5032552;28;20276;-59
2023/01/31 08:40:49;;;;;;;8.63;3.70;;;8.90;54.70;;;;;;5032029;28;20221;-59
2023/01/31 08:43:14;;;;;;;14.20;4.27;;;8.90;54.90;;;;;;5032345;28;20201;-59
2023/01/31 08:45:42;;;;;;;8.47;4.07;;;8.90;54.80;;;;;;5032330;28;20500;-59
2023/01/31 08:48:07;;;;;;;16.13;4.57;;;8.60;55.30;;;;;;5032276;28;20460;-59
2023/01/31 08:50:33;;;;;;;7.37;3.80;;;8.60;55.30;;;;;;5031817;28;20193;-59
2023/01/31 08:53:01;;;;;;;8.30;3.83;;;8.30;56.00;;;;;;5030735;28;20227;-59
2023/01/31 08:55:28;;;;;;;8.80;4.73;;;8.50;56.30;;;;;;5032265;28;20216;-60
2023/01/31 08:57:54;;;;;;;7.53;3.80;;;8.60;56.00;;;;;;5032070;28;20435;-59
2023/01/31 09:00:20;;;;;;;13.10;3.50;;;8.70;55.60;;;;;;5031652;28;20479;-59
2023/01/31 09:02:54;;;;;;;8.87;3.70;;;8.70;55.40;;;;;;5031988;28;20190;-59
2023/01/31 09:05:20;;;;;;;7.57;3.90;;;8.90;55.20;;;;;;5032149;28;20432;-59
2023/01/31 09:07:46;;;;;;;9.37;4.10;;;8.90;54.70;;;;;;5032026;28;20841;-59
2023/01/31 09:10:12;;;;;;;12.60;3.83;;;8.90;54.70;;;;;;5031567;28;20434;-59
2023/01/31 09:12:37;;;;;;;10.07;4.77;;;8.70;54.80;;;;;;5031799;28;20515;-59
2023/01/31 09:15:03;;;;;;;11.87;3.57;;;8.80;54.80;;;;;;5022489;28;20276;-59
2023/01/31 09:17:29;;;;;;;12.33;4.07;;;8.80;54.70;;;;;;5031718;28;20192;-60
2023/01/31 09:19:56;;;;;;;9.67;3.40;;;8.70;54.20;;;;;;5029374;28;20436;-59
2023/01/31 09:22:22;;;;;;;7.70;3.80;;;8.70;54.60;;;;;;5031554;28;20896;-59
2023/01/31 09:24:47;;;;;;;7.27;3.10;;;8.70;54.80;;;;;;5031820;28;20435;-59
2023/01/31 09:27:13;;;;;;;7.00;3.00;;;8.90;54.80;;;;;;5031564;28;20990;-59
2023/01/31 09:29:39;;;;;;;6.00;3.23;;;9.10;54.60;;;;;;5031269;28;20700;-59
2023/01/31 09:32:05;;;;;;;5.20;3.30;;;9.10;54.20;;;;;;5030891;28;20786;-59
2023/01/31 09:34:30;;;;;;;10.77;4.20;;;9.00;54.00;;;;;;5031367;28;20216;-59
2023/01/31 09:36:56;;;;;;;5.43;4.03;;;9.20;54.30;;;;;;5031215;28;20189;-59
2023/01/31 09:39:22;;;;;;;8.67;3.70;;;9.40;53.70;;;;;;5031002;28;20189;-59
2023/01/31 09:41:53;;;;;;;13.10;4.00;;;9.30;53.70;;;;;;5031243;28;20260;-59
2023/01/31 09:44:28;;;;;;;9.03;4.67;;;9.50;53.60;;;;;;5031323;28;20424;-59
2023/01/31 09:47:14;;;;;;;7.70;3.40;;;9.40;53.10;;;;;;5029571;28;20423;-59
2023/01/31 09:49:53;;;;;;;10.37;3.97;;;9.40;53.20;;;;;;5030782;28;20481;-59
2023/01/31 09:52:21;;;;;;;5.43;4.00;;;9.50;53.70;;;;;;5031284;28;20969;-59
2023/01/31 09:54:46;;;;;;;9.63;4.33;;;9.40;53.90;;;;;;5031155;28;20467;-59
2023/01/31 09:57:22;;;;;;;7.93;4.07;;;9.60;53.80;;;;;;5031236;28;20462;-59
2023/01/31 09:59:59;;;;;;;6.20;3.10;;;9.80;53.70;;;;;;5030726;28;20322;-59
2023/01/31 10:02:49;;;;;;;7.30;3.20;;;9.90;53.00;;;;;;5031245;28;20522;-59
2023/01/31 10:05:52;;;;;;;5.73;3.60;;;10.00;51.70;;;;;;5031131;28;20439;-59
2023/01/31 10:08:23;;;;;;;13.97;3.90;;;10.00;51.60;;;;;;5031114;28;20436;-59
2023/01/31 10:10:56;;;;;;;8.03;4.07;;;10.00;51.50;;;;;;5030528;28;20444;-59
2023/01/31 10:13:30;;;;;;;5.80;3.60;;;10.00;51.60;;;;;;5025567;28;20464;-59
2023/01/31 10:16:03;;;;;;;10.07;3.23;;;9.80;52.30;;;;;;5026821;28;20431;-59
2023/01/31 10:18:33;;;;;;;8.40;4.30;;;9.70;52.80;;;;;;5030879;28;20503;-59
2023/01/31 10:21:19;;;;;;;12.00;4.20;;;9.50;52.90;;;;;;5030234;28;20970;-59
2023/01/31 10:23:55;;;;;;;6.93;3.73;;;9.40;53.00;;;;;;5030887;28;21093;-59
2023/01/31 10:26:35;;;;;;;10.53;3.33;;;9.30;52.80;;;;;;5030958;28;20451;-59
2023/01/31 10:29:18;;;;;;;8.50;3.60;;;9.60;53.00;;;;;;5030482;28;20425;-59
2023/01/31 10:31:50;;;;;;;7.63;3.90;;;9.40;52.70;;;;;;5030712;28;20521;-59
2023/01/31 10:34:29;;;;;;;12.57;4.00;;;9.40;53.10;;;;;;5031035;28;20464;-59
2023/01/31 10:37:34;;;;;;;9.40;3.47;;;9.20;52.80;;;;;;5030881;28;20467;-59
2023/01/31 10:40:12;;;;;;;6.90;3.23;;;9.00;52.90;;;;;;5028568;28;20431;-59
2023/01/31 10:42:41;;;;;;;12.10;3.80;;;8.80;53.20;;;;;;5032076;28;20515;-59
2023/01/31 10:45:18;;;;;;;13.93;7.20;;;8.80;53.60;;;;;;5034704;28;20435;-59
2023/01/31 10:47:52;;;;;;;11.97;3.37;;;9.10;53.70;;;;;;5034725;28;20795;-59
2023/01/31 10:50:41;;;;;;;11.03;4.50;;;9.20;53.40;;;;;;5034417;28;20423;-59
2023/01/31 10:53:48;;;;;;;6.30;2.97;;;9.40;53.20;;;;;;5034551;28;20439;-59
2023/01/31 10:56:23;;;;;;;17.20;6.87;;;9.30;52.90;;;;;;5033155;28;20508;-59
2023/01/31 10:58:50;;;;;;;7.60;3.60;;;9.30;53.50;;;;;;5033977;28;20916;-59
2023/01/31 11:01:16;;;;;;;18.47;8.47;;;9.30;53.00;;;;;;5034061;28;20574;-59
2023/01/31 11:03:51;;;;;;;10.20;6.60;;;9.20;52.80;;;;;;5034305;28;20516;-59
2023/01/31 11:06:17;;;;;;;9.77;3.90;;;9.00;53.10;;;;;;5033029;28;20790;-59
2023/01/31 11:08:47;;;;;;;7.30;3.27;;;8.90;53.50;;;;;;5033357;28;20790;-59
2023/01/31 11:11:16;;;;;;;8.70;3.23;;;8.90;53.70;;;;;;5034269;28;20557;-59
2023/01/31 11:14:01;;;;;;;8.80;5.00;;;9.10;53.70;;;;;;5027763;28;20428;-59
2023/01/31 11:16:34;;;;;;;5.00;3.10;;;9.10;53.80;;;;;;5020873;28;20859;-59
2023/01/31 11:19:03;;;;;;;7.90;3.10;;;9.10;53.70;;;;;;5033574;28;20431;-59
2023/01/31 11:21:33;;;;;;;10.07;3.77;;;9.20;54.30;;;;;;5033939;28;20490;-59
2023/01/31 11:24:14;;;;;;;5.03;2.80;;;9.30;53.50;;;;;;5033790;28;20503;-59
2023/01/31 11:26:47;;;;;;;4.00;2.73;;;9.20;53.00;;;;;;5033758;28;20911;-59
2023/01/31 11:29:44;;;;;;;6.83;4.03;;;9.50;53.30;;;;;;5033305;28;20450;-59
2023/01/31 11:32:25;;;;;;;10.73;3.30;;;9.50;53.10;;;;;;5033657;28;20479;-59
2023/01/31 11:35:02;;;;;;;12.03;3.43;;;9.50;53.20;;;;;;5032174;28;20486;-59
2023/01/31 11:37:28;;;;;;;6.33;3.17;;;9.60;52.70;;;;;;5033633;28;20594;-59
2023/01/31 11:39:58;;;;;;;9.53;3.90;;;9.60;52.70;;;;;;5033341;28;20911;-59
2023/01/31 11:42:24;;;;;;;5.83;2.97;;;9.70;52.80;;;;;;5033478;28;20463;-59
2023/01/31 11:45:18;;;;;;;10.77;3.40;;;9.80;52.40;;;;;;5033559;28;20424;-59
2023/01/31 11:48:12;;;;;;;7.07;3.30;;;9.90;52.50;;;;;;5032729;28;20951;-59
2023/01/31 11:51:01;;;;;;;9.37;3.10;;;9.90;52.20;;;;;;5030720;28;20471;-59
2023/01/31 11:53:35;;;;;;;5.50;3.20;;;9.60;52.40;;;;;;5033253;28;20440;-59
2023/01/31 11:56:15;;;;;;;7.73;3.70;;;9.30;52.40;;;;;;5033395;28;20427;-59
2023/01/31 11:58:42;;;;;;;6.67;3.40;;;9.30;52.70;;;;;;5032940;28;20443;-59
2023/01/31 12:01:11;;;;;;;7.47;3.20;;;9.40;52.90;;;;;;5031310;28;20889;-59
2023/01/31 12:03:36;;;;;;;7.10;3.40;;;9.70;52.40;;;;;;5033193;28;20984;-59
2023/01/31 12:06:08;;;;;;;7.73;3.00;;;9.80;52.10;;;;;;5033048;28;20428;-59
2023/01/31 12:08:35;;;;;;;4.40;2.60;;;9.90;52.40;;;;;;5032915;28;20220;-59
2023/01/31 12:11:24;;;;;;;6.03;3.03;;;9.90;52.30;;;;;;5033109;28;20523;-59
2023/01/31 12:13:59;;;;;;;6.83;3.23;;;10.00;51.30;;;;;;5021400;28;20448;-59
2023/01/31 12:16:26;;;;;;;7.57;2.63;;;10.10;51.40;;;;;;5032630;28;20428;-59
2023/01/31 12:19:10;;;;;;;9.10;3.20;;;10.10;51.40;;;;;;5032479;28;20915;-59
2023/01/31 12:22:09;;;;;;;7.20;2.50;;;10.10;51.30;;;;;;5032750;28;20498;-59
2023/01/31 12:24:47;;;;;;;7.37;3.47;;;10.50;50.90;;;;;;5032645;28;20440;-59
2023/01/31 12:27:24;;;;;;;6.67;3.37;;;10.60;50.40;;;;;;5031203;28;20483;-59
2023/01/31 12:30:17;;;;;;;7.20;3.00;;;10.70;50.30;;;;;;5032543;28;20435;-59
2023/01/31 12:33:05;;;;;;;10.63;3.50;;;10.50;50.40;;;;;;5032793;28;20815;-59
2023/01/31 12:36:07;;;;;;;12.23;4.10;;;10.40;50.40;;;;;;5032500;28;20432;-59
2023/01/31 12:38:54;;;;;;;6.70;2.90;;;10.50;50.40;;;;;;5032250;28;20423;-59
2023/01/31 12:41:34;;;;;;;6.33;3.27;;;10.60;49.90;;;;;;5032585;28;20518;-60
2023/01/31 12:44:09;;;;;;;6.70;3.10;;;10.60;49.90;;;;;;5032337;28;20450;-59
2023/01/31 12:46:54;;;;;;;4.90;3.03;;;10.70;50.00;;;;;;5032297;28;20466;-59
2023/01/31 12:49:40;;;;;;;4.90;2.10;;;10.80;49.40;;;;;;5031972;28;20474;-59
2023/01/31 12:52:23;;;;;;;4.47;2.07;;;11.10;48.90;;;;;;5032288;28;20851;-59
2023/01/31 12:55:26;;;;;;;5.70;2.60;;;11.20;48.20;;;;;;5030580;28;20431;-60
2023/01/31 12:58:26;;;;;;;8.37;2.13;;;11.00;47.90;;;;;;5032107;28;20449;-59
2023/01/31 13:01:09;;;;;;;6.53;2.70;;;10.70;48.00;;;;;;5031480;28;20553;-59
2023/01/31 13:03:48;;;;;;;6.63;2.30;;;10.70;48.10;;;;;;5018995;28;20432;-60
2023/01/31 13:06:26;;;;;;;6.77;2.37;;;10.90;48.40;;;;;;5031281;28;20432;-59
2023/01/31 13:08:59;;;;;;;3.17;1.77;;;11.00;48.30;;;;;;5031573;28;20424;-60
2023/01/31 13:11:34;;;;;;;4.70;2.30;;;10.80;47.50;;;;;;5031933;28;20467;-59
2023/01/31 13:14:08;;;;;;;4.30;2.20;;;11.00;47.70;;;;;;5023054;28;20950;-60
2023/01/31 13:16:41;;;;;;;6.60;2.37;;;11.00;47.60;;;;;;5031705;28;20460;-60
2023/01/31 13:19:28;;;;;;;5.57;1.97;;;10.70;47.20;;;;;;5031294;28;20428;-59
2023/01/31 13:21:58;;;;;;;5.43;2.07;;;10.50;47.50;;;;;;5030922;28;21033;-59
2023/01/31 13:24:37;;;;;;;7.40;2.50;;;10.40;48.40;;;;;;5031479;28;20440;-59